Time;durP1;ratioP1;P1;durP2;ratioP2;P2;SDS_P1;SDS_P2;PMS_P1;PMS_P2;Temp;Humidity;BMP_temperature;BMP_pressure;BME280_temperature;BME280_humidity;BME280_pressure;Samples;Min_cycle;Max_cycle;Signal;HPM_P1;HPM_P2
2023/03/13 00:01:00;;;;;;;2.13;1.30;;;8.70;66.50;7.80;95467.00;;;;5053702;28;20192;-59
2023/03/13 00:03:28;;;;;;;0.90;0.90;;;8.60;66.80;7.80;95469.00;;;;5053378;28;20196;-59
2023/03/13 00:05:58;;;;;;;0.50;0.50;;;8.60;66.80;7.80;95466.00;;;;5052845;28;20214;-60
2023/03/13 00:08:29;;;;;;;1.13;1.13;;;8.60;66.70;7.90;95466.00;;;;5052989;28;20215;-60
2023/03/13 00:10:56;;;;;;;0.93;0.93;;;8.50;67.20;7.80;95470.00;;;;5053963;28;20177;-60
2023/03/13 00:13:23;;;;;;;1.20;0.97;;;8.50;66.90;7.70;95429.00;;;;5052969;28;20199;-60
2023/03/13 00:16:00;;;;;;;0.53;0.53;;;8.50;67.40;7.80;95471.00;;;;5054912;28;20192;-60
2023/03/13 00:18:27;;;;;;;0.97;0.97;;;8.60;67.40;7.80;95452.00;;;;5057102;28;20713;-60
2023/03/13 00:21:00;;;;;;;6.03;1.33;;;8.60;67.10;7.90;95465.00;;;;5057904;28;20598;-60
2023/03/13 00:23:27;;;;;;;0.60;0.60;;;8.70;66.60;7.90;95467.00;;;;5057661;28;20234;-61
2023/03/13 00:25:58;;;;;;;0.60;0.60;;;8.70;66.50;7.80;95462.00;;;;5057438;28;20231;-60
2023/03/13 00:28:27;;;;;;;1.23;1.23;;;8.70;66.60;7.90;95468.00;;;;5057678;28;20223;-58
2023/03/13 00:31:02;;;;;;;0.60;0.60;;;8.70;66.40;7.90;95464.00;;;;5057212;28;20207;-59
2023/03/13 00:33:29;;;;;;;0.70;0.70;;;8.60;66.30;8.00;95458.00;;;;5057399;28;20178;-60
2023/03/13 00:36:00;;;;;;;2.77;1.57;;;8.70;66.40;8.00;95454.00;;;;5057272;28;20202;-60
2023/03/13 00:38:28;;;;;;;0.83;0.83;;;8.70;65.80;8.00;95463.00;;;;5057484;28;20607;-60
2023/03/13 00:41:01;;;;;;;0.50;0.50;;;8.80;65.50;8.00;95454.00;;;;5056769;28;20231;-60
2023/03/13 00:43:28;;;;;;;0.90;0.90;;;8.80;65.10;8.20;95442.00;;;;5056723;28;20195;-60
2023/03/13 00:45:55;;;;;;;0.50;0.50;;;8.90;65.40;8.10;95446.00;;;;5056581;28;20216;-60
2023/03/13 00:48:23;;;;;;;0.77;0.77;;;8.90;65.00;8.00;95440.00;;;;5056532;28;20216;-60
2023/03/13 00:50:50;;;;;;;0.60;0.60;;;8.80;65.20;8.00;95439.00;;;;5056633;28;20184;-60
2023/03/13 00:53:19;;;;;;;0.73;0.73;;;8.90;65.30;8.00;95436.00;;;;5056780;28;20203;-60
2023/03/13 00:55:57;;;;;;;0.93;0.90;;;8.80;65.50;8.00;95440.00;;;;5056443;28;20192;-60
2023/03/13 00:58:26;;;;;;;6.13;1.33;;;8.80;65.50;8.10;95430.00;;;;5056286;28;20211;-62
2023/03/13 01:00:54;;;;;;;0.80;0.80;;;8.90;65.20;8.10;95419.00;;;;5056365;28;20500;-59
2023/03/13 01:03:24;;;;;;;0.67;0.67;;;8.90;64.80;8.20;95426.00;;;;5056331;28;20184;-61
2023/03/13 01:05:59;;;;;;;0.93;0.93;;;8.90;64.50;8.20;95422.00;;;;5056500;28;20635;-62
2023/03/13 01:08:29;;;;;;;0.70;0.70;;;9.00;64.10;8.30;95413.00;;;;5056502;28;20214;-59
2023/03/13 01:11:01;;;;;;;1.07;1.07;;;9.00;63.80;8.30;95410.00;;;;5056471;28;20535;-59
2023/03/13 01:13:31;;;;;;;0.50;0.50;;;9.00;63.70;8.40;95407.00;;;;5056104;28;20184;-61
2023/03/13 01:16:02;;;;;;;0.70;0.70;;;9.10;63.70;8.50;95402.00;;;;5056118;28;20220;-59
2023/03/13 01:18:29;;;;;;;3.27;1.43;;;9.20;63.20;8.40;95389.00;;;;5056596;28;20215;-60
2023/03/13 01:20:56;;;;;;;0.50;0.50;;;9.20;63.30;8.50;95394.00;;;;5055981;28;20658;-60
2023/03/13 01:23:23;;;;;;;0.60;0.60;;;9.20;63.10;8.70;95387.00;;;;5056482;28;20189;-60
2023/03/13 01:25:52;;;;;;;1.93;1.83;;;9.30;62.40;8.70;95378.00;;;;5056039;28;20220;-59
2023/03/13 01:28:19;;;;;;;1.90;1.17;;;9.40;62.20;8.80;95373.00;;;;5054723;28;20216;-59
2023/03/13 01:30:46;;;;;;;0.60;0.60;;;9.50;61.90;8.70;95375.00;;;;5055791;28;20192;-59
2023/03/13 01:33:13;;;;;;;7.63;2.03;;;9.50;61.80;8.70;95366.00;;;;5055729;28;20188;-59
2023/03/13 01:35:40;;;;;;;2.53;1.33;;;9.50;61.60;9.00;95375.00;;;;5055704;28;20219;-61
2023/03/13 01:38:07;;;;;;;0.63;0.63;;;9.60;61.70;8.80;95370.00;;;;5056031;28;20219;-61
2023/03/13 01:40:40;;;;;;;0.80;0.80;;;9.50;61.70;8.90;95361.00;;;;5055678;28;20192;-61
2023/03/13 01:43:21;;;;;;;0.60;0.60;;;9.60;61.40;8.90;95354.00;;;;5055883;28;20177;-60
2023/03/13 01:45:59;;;;;;;0.60;0.60;;;9.60;61.40;9.00;95347.00;;;;5055693;28;20204;-61
2023/03/13 01:48:37;;;;;;;1.43;1.43;;;9.60;61.30;8.90;95353.00;;;;5055750;28;20211;-59
2023/03/13 01:51:10;;;;;;;0.93;0.93;;;9.60;61.70;8.80;95347.00;;;;5055453;28;20195;-61
2023/03/13 01:53:41;;;;;;;0.73;0.73;;;;;8.70;95342.00;;;;5055983;28;20191;-60
2023/03/13 01:56:12;;;;;;;2.33;1.13;;;;;8.90;95338.00;;;;5037788;28;20257;-59
2023/03/13 01:58:41;;;;;;;0.50;0.50;;;;;8.90;95339.00;;;;5055193;28;20216;-60
2023/03/13 02:01:09;;;;;;;1.37;1.37;;;;;8.80;95329.00;;;;5055372;28;20219;-60
2023/03/13 02:03:37;;;;;;;0.80;0.80;;;;;8.90;95347.00;;;;5055130;28;20191;-61
2023/03/13 02:06:07;;;;;;;2.27;0.93;;;;;9.00;95338.00;;;;5055125;28;20227;-60
2023/03/13 02:08:39;;;;;;;0.70;0.70;;;;;9.00;95337.00;;;;5037433;28;20228;-61
2023/03/13 02:11:15;;;;;;;0.50;0.50;;;;;9.10;95326.00;;;;5055403;28;20245;-60
2023/03/13 02:13:44;;;;;;;0.80;0.80;;;;;9.10;95318.00;;;;5055052;28;20184;-61
2023/03/13 02:16:12;;;;;;;0.60;0.60;;;;;9.00;95323.00;;;;5054922;28;20241;-60
2023/03/13 02:18:39;;;;;;;0.60;0.60;;;;;9.10;95325.00;;;;5054973;28;20215;-59
2023/03/13 02:21:14;;;;;;;0.90;0.90;;;;;9.10;95326.00;;;;5055215;28;20245;-61
2023/03/13 02:23:51;;;;;;;0.90;0.90;;;;;8.90;95316.00;;;;5054849;28;20230;-61
2023/03/13 02:26:20;;;;;;;0.57;0.57;;;;;9.00;95328.00;;;;5054990;28;20207;-61
2023/03/13 02:28:49;;;;;;;0.80;0.80;;;;;9.10;95314.00;;;;5055065;28;20698;-59
2023/03/13 02:31:16;;;;;;;0.80;0.80;;;;;9.10;95315.00;;;;5054711;28;20334;-61
2023/03/13 02:33:44;;;;;;;0.70;0.70;;;;;9.10;95301.00;;;;5054961;28;20674;-60
2023/03/13 02:36:14;;;;;;;0.80;0.80;;;;;9.10;95293.00;;;;5054761;28;20279;-59
2023/03/13 02:38:45;;;;;;;0.70;0.70;;;;;9.20;95293.00;;;;5054261;28;20270;-58
2023/03/13 02:41:14;;;;;;;1.53;1.33;;;;;9.30;95282.00;;;;5054784;28;20639;-61
2023/03/13 02:43:42;;;;;;;0.97;0.97;;;9.90;66.00;9.30;95283.00;;;;5054727;28;20192;-61
2023/03/13 02:46:12;;;;;;;2.23;1.40;;;9.90;67.00;9.20;95287.00;;;;5036461;28;20239;-60
2023/03/13 02:48:44;;;;;;;0.70;0.70;;;9.90;67.80;9.20;95283.00;;;;5054334;28;20208;-60
2023/03/13 02:51:20;;;;;;;0.87;0.83;;;9.90;68.20;9.30;95287.00;;;;5054600;28;20183;-60
2023/03/13 02:53:50;;;;;;;0.70;0.70;;;;;9.30;95288.00;;;;5054290;28;20659;-60
2023/03/13 02:56:22;;;;;;;0.60;0.60;;;;;9.30;95272.00;;;;5054474;28;20508;-59
2023/03/13 02:58:51;;;;;;;0.70;0.70;;;;;9.20;95291.00;;;;5052876;28;20273;-60
2023/03/13 03:01:18;;;;;;;0.60;0.60;;;;;9.30;95273.00;;;;5054106;28;20197;-59
2023/03/13 03:03:46;;;;;;;1.17;1.17;;;;;9.30;95256.00;;;;5054055;28;20208;-60
2023/03/13 03:06:13;;;;;;;0.60;0.60;;;;;9.20;95253.00;;;;5036117;28;20297;-60
2023/03/13 03:08:42;;;;;;;0.50;0.50;;;;;9.20;95258.00;;;;5053936;28;20226;-59
2023/03/13 03:11:10;;;;;;;0.50;0.50;;;;;9.20;95251.00;;;;5054070;28;20647;-60
2023/03/13 03:13:38;;;;;;;0.60;0.60;;;;;9.20;95238.00;;;;5054192;28;20195;-60
2023/03/13 03:16:11;;;;;;;0.67;0.67;;;;;9.20;95242.00;;;;5054385;28;20193;-59
2023/03/13 03:18:39;;;;;;;0.67;0.67;;;;;9.20;95251.00;;;;5053952;28;20227;-60
2023/03/13 03:21:07;;;;;;;0.60;0.60;;;;;9.20;95239.00;;;;5053782;28;20200;-61
2023/03/13 03:23:35;;;;;;;0.60;0.60;;;;;9.30;95241.00;;;;5053763;28;20221;-61
2023/03/13 03:26:03;;;;;;;0.60;0.60;;;;;9.10;95236.00;;;;5053611;28;20663;-60
2023/03/13 03:28:31;;;;;;;0.70;0.70;;;;;9.20;95247.00;;;;5053543;28;20212;-60
2023/03/13 03:31:03;;;;;;;0.60;0.60;;;;;9.10;95251.00;;;;5053723;28;20663;-60
2023/03/13 03:33:31;;;;;;;0.60;0.60;;;;;9.20;95230.00;;;;5053823;28;20180;-60
2023/03/13 03:36:01;;;;;;;0.77;0.77;;;;;9.20;95239.00;;;;5053788;28;20188;-61
2023/03/13 03:38:28;;;;;;;0.60;0.60;;;;;9.30;95224.00;;;;5053585;28;20212;-60
2023/03/13 03:40:56;;;;;;;0.70;0.70;;;;;9.20;95220.00;;;;5053420;28;20196;-60
2023/03/13 03:43:23;;;;;;;0.50;0.50;;;;;9.20;95226.00;;;;5053367;28;20196;-59
2023/03/13 03:45:51;;;;;;;1.93;1.83;;;;;9.20;95214.00;;;;5053341;28;20553;-59
2023/03/13 03:48:18;;;;;;;0.57;0.57;;;;;9.30;95217.00;;;;5053394;28;20224;-60
2023/03/13 03:50:47;;;;;;;0.80;0.80;;;;;9.40;95217.00;;;;5052696;28;20200;-60
2023/03/13 03:53:14;;;;;;;0.70;0.70;;;;;9.40;95220.00;;;;5053239;28;20191;-60
2023/03/13 03:55:42;;;;;;;0.80;0.80;;;;;9.30;95226.00;;;;5053736;28;20253;-60
2023/03/13 03:58:09;;;;;;;0.57;0.57;;;;;9.30;95216.00;;;;5053283;28;20593;-59
2023/03/13 04:00:37;;;;;;;0.80;0.80;;;;;9.30;95211.00;;;;5053123;28;20192;-60
2023/03/13 04:03:04;;;;;;;0.90;0.90;;;;;9.30;95214.00;;;;5053264;28;20188;-59
2023/03/13 04:05:32;;;;;;;0.60;0.60;;;;;9.30;95197.00;;;;5053365;28;20652;-60
2023/03/13 04:08:01;;;;;;;0.60;0.60;;;;;9.40;95197.00;;;;5053255;28;20231;-60
2023/03/13 04:10:28;;;;;;;0.60;0.60;;;;;9.30;95204.00;;;;5053635;28;20195;-60
2023/03/13 04:12:55;;;;;;;0.63;0.63;;;;;9.40;95196.00;;;;5053265;28;20554;-60
2023/03/13 04:15:23;;;;;;;0.60;0.60;;;;;9.40;95203.00;;;;5053243;28;20249;-60
2023/03/13 04:17:50;;;;;;;0.70;0.70;;;;;9.30;95201.00;;;;5068492;22;20224;-60
2023/03/13 04:20:18;;;;;;;0.67;0.67;;;;;9.30;95183.00;;;;5072678;28;20215;-59
2023/03/13 04:22:45;;;;;;;0.80;0.80;;;;;9.40;95181.00;;;;5072939;28;20226;-59
2023/03/13 04:25:14;;;;;;;0.57;0.57;;;;;9.40;95179.00;;;;5073166;28;20195;-59
2023/03/13 04:27:42;;;;;;;1.47;1.37;;;;;9.40;95184.00;;;;5073068;28;20742;-59
2023/03/13 04:30:10;;;;;;;0.70;0.70;;;;;9.20;95191.00;;;;5073156;28;20187;-59
2023/03/13 04:32:37;;;;;;;0.60;0.60;;;;;9.20;95189.00;;;;5073133;28;20256;-59
2023/03/13 04:35:05;;;;;;;0.73;0.73;;;;;9.30;95173.00;;;;5072810;28;20673;-59
2023/03/13 04:37:33;;;;;;;0.50;0.50;;;;;9.20;95181.00;;;;5054886;28;20192;-59
2023/03/13 04:40:01;;;;;;;0.60;0.60;;;;;9.30;95172.00;;;;5072743;28;20255;-59
2023/03/13 04:42:30;;;;;;;1.00;1.00;;;;;9.40;95172.00;;;;5073073;28;20237;-59
2023/03/13 04:44:57;;;;;;;0.60;0.60;;;;;9.50;95167.00;;;;5072982;28;20554;-59
2023/03/13 04:47:25;;;;;;;1.53;1.43;;;;;9.50;95175.00;;;;5054685;28;20227;-59
2023/03/13 04:49:52;;;;;;;0.60;0.60;;;;;9.60;95168.00;;;;5072606;28;20222;-59
2023/03/13 04:52:19;;;;;;;0.73;0.73;;;;;9.50;95175.00;;;;5072674;28;20691;-59
2023/03/13 04:54:47;;;;;;;0.60;0.60;;;;;9.50;95164.00;;;;5072637;28;20655;-59
2023/03/13 04:57:14;;;;;;;0.60;0.60;;;;;9.60;95165.00;;;;5072929;28;20191;-59
2023/03/13 04:59:43;;;;;;;0.60;0.60;;;;;9.70;95171.00;;;;5072630;28;20211;-59
2023/03/13 05:02:11;;;;;;;0.60;0.60;;;;;9.70;95179.00;;;;5056361;28;20199;-59
2023/03/13 05:04:39;;;;;;;0.60;0.60;;;;;9.70;95167.00;;;;5076259;28;20727;-59
2023/03/13 05:07:06;;;;;;;0.50;0.50;;;;;9.60;95164.00;;;;5076695;28;20272;-58
2023/03/13 05:09:34;;;;;;;0.60;0.60;;;;;9.70;95175.00;;;;5076701;28;20208;-58
2023/03/13 05:12:01;;;;;;;1.37;1.37;;;;;9.70;95170.00;;;;5076680;28;20630;-58
2023/03/13 05:14:28;;;;;;;0.60;0.60;;;;;9.80;95176.00;;;;5076390;28;20570;-58
2023/03/13 05:16:57;;;;;;;0.60;0.60;;;;;9.80;95168.00;;;;5076116;28;20192;-58
2023/03/13 05:19:25;;;;;;;0.50;0.50;;;;;9.90;95163.00;;;;5076104;28;20268;-59
2023/03/13 05:21:52;;;;;;;0.60;0.60;;;;;9.90;95160.00;;;;5076287;28;20195;-60
2023/03/13 05:24:19;;;;;;;0.60;0.60;;;;;10.00;95151.00;;;;5058055;28;20199;-59
2023/03/13 05:26:47;;;;;;;0.80;0.80;;;;;10.00;95155.00;;;;5057897;28;20203;-59
2023/03/13 05:29:14;;;;;;;0.50;0.50;;;;;10.10;95176.00;;;;5076327;28;20215;-59
2023/03/13 05:31:42;;;;;;;0.80;0.80;;;;;10.00;95181.00;;;;5075824;28;20678;-59
2023/03/13 05:34:10;;;;;;;0.50;0.50;;;;;10.00;95174.00;;;;5075721;28;20195;-59
2023/03/13 05:36:38;;;;;;;0.60;0.60;;;;;10.00;95171.00;;;;5075745;28;20196;-59
2023/03/13 05:39:05;;;;;;;0.60;0.60;;;;;10.00;95169.00;;;;5075596;28;20203;-59
2023/03/13 05:41:33;;;;;;;0.60;0.60;;;;;9.90;95154.00;;;;5076351;28;20198;-59
2023/03/13 05:44:00;;;;;;;0.60;0.60;;;;;10.00;95159.00;;;;5075594;28;20192;-59
2023/03/13 05:46:27;;;;;;;0.50;0.50;;;;;10.00;95153.00;;;;5057596;28;20241;-58
2023/03/13 05:48:55;;;;;;;0.50;0.50;;;;;10.00;95150.00;;;;5075754;28;20223;-59
2023/03/13 05:51:24;;;;;;;0.60;0.60;;;;;10.00;95153.00;;;;5076185;28;20195;-59
2023/03/13 05:53:51;;;;;;;0.60;0.60;;;;;10.00;95168.00;;;;5075927;28;20634;-59
2023/03/13 05:56:18;;;;;;;0.50;0.50;;;;;10.10;95155.00;;;;5075287;28;20191;-60
2023/03/13 05:58:46;;;;;;;0.60;0.60;;;;;10.20;95170.00;;;;5075546;28;20253;-59
2023/03/13 06:01:14;;;;;;;0.70;0.70;;;;;10.10;95160.00;;;;5075204;28;20245;-59
2023/03/13 06:03:41;;;;;;;0.50;0.50;;;;;10.10;95162.00;;;;5075351;28;20234;-59
2023/03/13 06:06:09;;;;;;;0.77;0.77;;;;;10.10;95171.00;;;;5075403;28;20198;-59
2023/03/13 06:08:37;;;;;;;0.60;0.60;;;;;10.10;95164.00;;;;5075061;28;20230;-59
2023/03/13 06:11:05;;;;;;;0.60;0.60;;;;;10.20;95163.00;;;;5075162;28;20199;-59
2023/03/13 06:13:33;;;;;;;0.50;0.50;;;;;10.30;95171.00;;;;5074542;28;20676;-59
2023/03/13 06:16:01;;;;;;;0.60;0.60;;;;;10.20;95165.00;;;;5075242;28;20187;-63
2023/03/13 06:18:29;;;;;;;0.60;0.60;;;;;10.00;95175.00;;;;5074808;28;20223;-58
2023/03/13 06:20:58;;;;;;;1.00;1.00;;;;;10.20;95171.00;;;;5075471;28;20183;-59
2023/03/13 06:23:26;;;;;;;0.50;0.50;;;;;10.20;95162.00;;;;5074808;28;20202;-59
2023/03/13 06:25:55;;;;;;;0.70;0.70;;;;;10.20;95187.00;;;;5075317;28;20191;-58
2023/03/13 06:28:23;;;;;;;0.80;0.80;;;;;10.30;95163.00;;;;5074584;28;20227;-59
2023/03/13 06:30:50;;;;;;;0.50;0.50;;;;;10.30;95188.00;;;;5074773;28;20547;-58
2023/03/13 06:33:18;;;;;;;0.60;0.60;;;;;10.30;95172.00;;;;5074640;28;20191;-59
2023/03/13 06:35:45;;;;;;;0.50;0.50;;;;;10.10;95173.00;;;;5074661;28;20202;-58
2023/03/13 06:38:12;;;;;;;0.60;0.60;;;;;10.30;95182.00;;;;5075037;28;20211;-58
2023/03/13 06:40:40;;;;;;;0.70;0.70;;;;;10.30;95182.00;;;;5074552;28;20286;-58
2023/03/13 06:43:09;;;;;;;0.70;0.70;;;;;10.30;95179.00;;;;5056507;28;20607;-59
2023/03/13 06:45:36;;;;;;;0.53;0.53;;;;;10.20;95168.00;;;;5074663;28;20241;-59
2023/03/13 06:48:04;;;;;;;0.50;0.50;;;;;10.20;95183.00;;;;5074267;28;20215;-59
2023/03/13 06:50:32;;;;;;;0.50;0.50;;;;;10.20;95187.00;;;;5074384;28;20199;-59
2023/03/13 06:53:15;;;;;;;0.50;0.50;;;;;10.20;95187.00;;;;5074305;28;20195;-59
2023/03/13 06:55:43;;;;;;;0.70;0.70;;;;;10.20;95201.00;;;;5074251;28;20171;-59
2023/03/13 06:58:12;;;;;;;0.50;0.50;;;;;10.30;95180.00;;;;5074099;28;20215;-59
2023/03/13 07:00:41;;;;;;;0.50;0.50;;;;;10.20;95183.00;;;;5074135;28;20199;-59
2023/03/13 07:03:08;;;;;;;0.80;0.80;;;;;10.30;95196.00;;;;5074074;28;20191;-59
2023/03/13 07:05:40;;;;;;;0.60;0.60;;;;;10.30;95185.00;;;;5074374;28;20195;-59
2023/03/13 07:08:08;;;;;;;0.50;0.50;;;;;10.20;95181.00;;;;5073797;28;20211;-59
2023/03/13 07:10:35;;;;;;;0.60;0.60;;;;;10.10;95191.00;;;;5056004;28;20659;-58
2023/03/13 07:13:03;;;;;;;0.60;0.60;;;;;10.10;95182.00;;;;5073800;28;20200;-59
2023/03/13 07:15:31;;;;;;;0.90;0.90;;;;;9.90;95180.00;;;;5073882;28;20199;-59
2023/03/13 07:17:59;;;;;;;0.50;0.50;;;;;10.00;95186.00;;;;5073851;28;20265;-58
2023/03/13 07:20:26;;;;;;;0.60;0.60;;;;;10.00;95173.00;;;;5074046;28;20531;-58
2023/03/13 07:22:54;;;;;;;0.60;0.60;;;10.70;95.70;10.10;95163.00;;;;5074103;28;20202;-59
2023/03/13 07:25:21;;;;;;;0.60;0.60;;;;;10.10;95174.00;;;;5073089;28;20651;-58
2023/03/13 07:27:52;;;;;;;0.60;0.60;;;;;10.10;95174.00;;;;5073465;28;20706;-58
2023/03/13 07:30:19;;;;;;;0.53;0.53;;;;;10.20;95170.00;;;;5069794;28;20195;-60
2023/03/13 07:32:48;;;;;;;0.60;0.60;;;;;10.20;95182.00;;;;5068543;28;20241;-60
2023/03/13 07:35:16;;;;;;;0.50;0.50;;;;;10.30;95178.00;;;;5070348;28;20199;-60
2023/03/13 07:37:43;;;;;;;0.60;0.60;;;;;10.40;95186.00;;;;5071568;28;20248;-59
2023/03/13 07:40:12;;;;;;;0.50;0.50;;;;;10.50;95165.00;;;;5053565;28;20940;-59
2023/03/13 07:42:41;;;;;;;1.07;1.07;;;;;10.60;95155.00;;;;5071835;28;20245;-60
2023/03/13 07:45:09;;;;;;;0.53;0.53;;;;;10.60;95149.00;;;;5069587;28;20828;-60
2023/03/13 07:47:36;;;;;;;0.50;0.50;;;;;10.60;95142.00;;;;5070809;28;20191;-60
2023/03/13 07:50:06;;;;;;;0.97;0.97;;;;;10.70;95175.00;;;;5070937;28;20204;-60
2023/03/13 07:52:33;;;;;;;0.50;0.50;;;;;10.80;95165.00;;;;5071639;28;22102;-60
2023/03/13 07:55:01;;;;;;;0.50;0.50;;;;;10.90;95161.00;;;;5070476;28;20199;-60
2023/03/13 07:57:28;;;;;;;0.50;0.50;;;11.50;84.50;10.80;95155.00;;;;5071338;28;20210;-60
2023/03/13 07:59:55;;;;;;;0.40;0.40;;;11.50;83.20;11.00;95138.00;;;;5070407;28;20690;-59
2023/03/13 08:02:22;;;;;;;0.60;0.60;;;11.60;82.70;11.00;95120.00;;;;5071651;28;20562;-60
2023/03/13 08:04:52;;;;;;;0.50;0.50;;;;;11.10;95113.00;;;;5071098;28;20644;-60
2023/03/13 08:07:21;;;;;;;0.60;0.60;;;;;11.20;95119.00;;;;5071947;28;20604;-60
2023/03/13 08:09:49;;;;;;;0.50;0.50;;;;;11.40;95115.00;;;;5070619;28;20803;-60
2023/03/13 08:12:16;;;;;;;0.60;0.60;;;;;11.50;95126.00;;;;5068851;28;20207;-60
2023/03/13 08:14:43;;;;;;;0.80;0.80;;;12.10;76.80;11.50;95139.00;;;;5071171;28;20198;-60
2023/03/13 08:17:11;;;;;;;1.00;1.00;;;12.00;77.10;11.30;95144.00;;;;5070783;28;20245;-60
2023/03/13 08:19:38;;;;;;;0.50;0.50;;;;;11.40;95131.00;;;;5052564;28;20330;-60
2023/03/13 08:22:05;;;;;;;0.60;0.60;;;;;11.40;95149.00;;;;5071470;28;20202;-59
2023/03/13 08:24:34;;;;;;;0.60;0.60;;;;;11.40;95141.00;;;;5070333;28;20199;-59
2023/03/13 08:27:01;;;;;;;0.50;0.50;;;;;11.40;95135.00;;;;5071414;28;20701;-60
2023/03/13 08:29:29;;;;;;;0.57;0.57;;;;;11.60;95140.00;;;;5069750;28;20285;-60
2023/03/13 08:31:56;;;;;;;0.50;0.50;;;;;11.60;95131.00;;;;5070863;28;20199;-60
2023/03/13 08:34:24;;;;;;;0.50;0.50;;;;;12.00;95114.00;;;;5069941;28;20199;-60
2023/03/13 08:36:52;;;;;;;0.60;0.60;;;;;11.60;95122.00;;;;5072769;28;20203;-60
2023/03/13 08:39:20;;;;;;;0.50;0.50;;;;;11.80;95131.00;;;;5073939;28;20258;-60
2023/03/13 08:41:49;;;;;;;0.50;0.50;;;;;12.00;95135.00;;;;5075660;28;20195;-60
2023/03/13 08:44:18;;;;;;;0.70;0.70;;;;;11.80;95136.00;;;;5074877;28;20198;-59
2023/03/13 08:46:47;;;;;;;0.53;0.53;;;;;11.80;95139.00;;;;5070682;28;20560;-59
2023/03/13 08:49:16;;;;;;;0.60;0.60;;;;;11.60;95143.00;;;;5056197;28;20239;-60
2023/03/13 08:51:44;;;;;;;0.60;0.60;;;;;11.80;95141.00;;;;5075086;28;20625;-60
2023/03/13 08:54:11;;;;;;;0.67;0.67;;;;;11.90;95145.00;;;;5074183;28;20207;-60
2023/03/13 08:56:39;;;;;;;0.80;0.80;;;;;11.80;95146.00;;;;5075067;28;20199;-60
2023/03/13 08:59:08;;;;;;;0.60;0.60;;;12.40;73.00;11.80;95155.00;;;;5074412;28;20546;-60
2023/03/13 09:01:36;;;;;;;0.57;0.57;;;;;11.80;95159.00;;;;5074845;28;20206;-60
2023/03/13 09:04:05;;;;;;;0.50;0.50;;;;;12.00;95138.00;;;;5074330;28;20548;-60
2023/03/13 09:06:33;;;;;;;5.10;0.97;;;;;12.20;95164.00;;;;5074803;28;20199;-60
2023/03/13 09:09:01;;;;;;;0.43;0.43;;;;;12.20;95156.00;;;;5074130;28;20585;-60
2023/03/13 09:11:28;;;;;;;2.93;1.17;;;;;11.90;95146.00;;;;5074638;28;20195;-60
2023/03/13 09:13:58;;;;;;;0.50;0.50;;;;;12.10;95148.00;;;;5073833;28;20191;-60
2023/03/13 09:16:29;;;;;;;0.67;0.67;;;;;11.90;95159.00;;;;5074485;28;20666;-60
2023/03/13 09:18:58;;;;;;;0.57;0.57;;;;;12.00;95161.00;;;;5073519;28;20219;-60
2023/03/13 09:21:27;;;;;;;0.60;0.60;;;;;12.10;95166.00;;;;5074091;28;20191;-61
2023/03/13 09:23:55;;;;;;;0.53;0.53;;;;;12.10;95167.00;;;;5074031;28;20207;-60
2023/03/13 09:26:23;;;;;;;0.50;0.50;;;;;12.00;95154.00;;;;5073089;28;20209;-60
2023/03/13 09:28:51;;;;;;;0.60;0.60;;;;;12.30;95163.00;;;;5072771;28;20223;-60
2023/03/13 09:31:21;;;;;;;0.60;0.60;;;;;12.10;95162.00;;;;5073188;28;20202;-61
2023/03/13 09:33:50;;;;;;;0.60;0.60;;;;;12.00;95162.00;;;;5073428;28;20716;-60
2023/03/13 09:36:18;;;;;;;0.60;0.60;;;;;12.30;95164.00;;;;5073089;28;20264;-61
2023/03/13 09:38:46;;;;;;;0.60;0.60;;;;;12.30;95164.00;;;;5073274;28;20649;-60
2023/03/13 09:41:26;;;;;;;0.60;0.60;;;;;12.40;95163.00;;;;5073704;28;20191;-60
2023/03/13 09:43:58;;;;;;;0.60;0.60;;;;;12.40;95145.00;;;;5050617;28;20199;-60
2023/03/13 09:46:31;;;;;;;0.73;0.73;;;;;12.50;95138.00;;;;5074202;28;20192;-60
2023/03/13 09:49:02;;;;;;;0.60;0.60;;;;;12.60;95127.00;;;;5072106;28;20230;-60
2023/03/13 09:51:33;;;;;;;0.63;0.63;;;;;12.70;95116.00;;;;5073993;28;20184;-60
2023/03/13 09:54:07;;;;;;;0.60;0.60;;;;;13.00;95126.00;;;;5072320;28;20546;-61
2023/03/13 09:56:40;;;;;;;0.60;0.60;;;;;12.90;95129.00;;;;5074141;28;20245;-61
2023/03/13 09:59:16;;;;;;;0.60;0.60;;;;;13.00;95115.00;;;;5073441;28;20207;-61
2023/03/13 10:01:47;;;;;;;0.53;0.53;;;;;13.50;95108.00;;;;5073911;28;20270;-61
2023/03/13 10:04:28;;;;;;;0.77;0.77;;;;;13.30;95109.00;;;;5073007;28;20195;-61
2023/03/13 10:06:55;;;;;;;0.60;0.60;;;;;13.30;95116.00;;;;5072360;28;20225;-61
2023/03/13 10:09:28;;;;;;;0.50;0.50;;;;;13.40;95076.00;;;;5072724;28;20223;-61
2023/03/13 10:12:04;;;;;;;0.60;0.60;;;;;13.80;95085.00;;;;5072025;28;20245;-61
2023/03/13 10:14:39;;;;;;;0.57;0.57;;;;;13.90;95092.00;;;;5073306;28;20203;-61
2023/03/13 10:17:19;;;;;;;0.70;0.70;;;14.20;58.70;13.90;95080.00;;;;5073375;28;20646;-61
2023/03/13 10:19:54;;;;;;;0.90;0.90;;;;;13.70;95097.00;;;;5073152;22;20247;-60
2023/03/13 10:22:26;;;;;;;0.70;0.70;;;;;14.00;95084.00;;;;5052857;28;20245;-61
2023/03/13 10:24:58;;;;;;;0.70;0.70;;;;;14.10;95080.00;;;;5048282;28;20199;-61
2023/03/13 10:27:26;;;;;;;0.50;0.50;;;;;13.90;95100.00;;;;5035288;28;20224;-59
2023/03/13 10:29:54;;;;;;;0.67;0.67;;;;;13.90;95080.00;;;;5028624;28;20497;-61
2023/03/13 10:32:21;;;;;;;0.60;0.60;;;;;13.90;95090.00;;;;5033061;28;20196;-60
2023/03/13 10:34:57;;;;;;;0.77;0.77;;;;;13.70;95074.00;;;;5032418;28;20197;-60
2023/03/13 10:37:27;;;;;;;0.50;0.50;;;;;14.00;95073.00;;;;5033349;28;20198;-60
2023/03/13 10:40:10;;;;;;;0.80;0.80;;;;;13.80;95076.00;;;;5032176;28;20684;-60
2023/03/13 10:42:42;;;;;;;0.70;0.70;;;;;14.00;95071.00;;;;5032896;28;20520;-60
2023/03/13 10:45:17;;;;;;;0.50;0.50;;;;;14.20;95055.00;;;;5032329;28;20208;-61
2023/03/13 10:47:44;;;;;;;1.17;1.07;;;;;14.10;95056.00;;;;5033245;28;20196;-60
2023/03/13 10:50:20;;;;;;;0.60;0.60;;;;;14.50;95035.00;;;;5032520;28;20586;-61
2023/03/13 10:52:49;;;;;;;0.60;0.60;;;;;15.00;95037.00;;;;5032456;28;20192;-61
2023/03/13 10:55:19;;;;;;;0.50;0.50;;;;;14.70;95034.00;;;;5032291;28;20683;-61
2023/03/13 10:57:57;;;;;;;0.60;0.60;;;;;14.80;95049.00;;;;5032345;28;20239;-61
2023/03/13 11:00:32;;;;;;;0.50;0.50;;;;;14.60;95044.00;;;;5030610;28;20189;-61
2023/03/13 11:03:02;;;;;;;0.60;0.60;;;;;14.80;95037.00;;;;5032254;28;20180;-61
2023/03/13 11:05:36;;;;;;;0.50;0.50;;;;;14.90;95028.00;;;;5042552;28;20207;-60
2023/03/13 11:08:21;;;;;;;0.70;0.70;;;;;15.30;95028.00;;;;5052630;28;20192;-61
2023/03/13 11:10:54;;;;;;;0.70;0.70;;;;;14.90;95024.00;;;;5051588;28;20200;-61
2023/03/13 11:13:30;;;;;;;0.63;0.63;;;;;14.90;95005.00;;;;5051910;28;20242;-61
2023/03/13 11:16:00;;;;;;;1.07;1.07;;;;;15.30;94993.00;;;;5051817;28;20216;-61
2023/03/13 11:18:32;;;;;;;0.57;0.57;;;;;15.70;94981.00;;;;5052013;28;20224;-61
2023/03/13 11:21:03;;;;;;;0.63;0.63;;;;;16.30;94975.00;;;;5048548;28;20223;-61
2023/03/13 11:23:36;;;;;;;0.70;0.70;;;;;16.20;94959.00;;;;5051789;28;20187;-61
2023/03/13 11:26:11;;;;;;;0.87;0.87;;;;;15.90;94972.00;;;;5051728;28;20241;-60
2023/03/13 11:28:51;;;;;;;0.77;0.77;;;;;16.40;94948.00;;;;5032238;28;20227;-60
2023/03/13 11:31:24;;;;;;;0.50;0.50;;;;;16.40;94945.00;;;;5030999;28;20192;-60
2023/03/13 11:33:59;;;;;;;0.83;0.83;;;;;16.80;94919.00;;;;5030755;28;20216;-61
2023/03/13 11:36:33;;;;;;;1.43;0.90;;;;;16.60;94939.00;;;;5031559;28;20192;-62
2023/03/13 11:39:17;;;;;;;0.47;0.47;;;;;16.90;94924.00;;;;5031846;28;20243;-63
2023/03/13 11:41:55;;;;;;;0.50;0.50;;;;;17.10;94923.00;;;;5031593;28;20222;-64
2023/03/13 11:44:31;;;;;;;0.50;0.50;;;;;16.90;94927.00;;;;5031917;28;20192;-62
2023/03/13 11:47:29;;;;;;;0.50;0.50;;;;;16.40;94913.00;;;;5031536;28;20200;-59
2023/03/13 11:50:14;;;;;;;0.40;0.40;;;;;16.90;94906.00;;;;5031367;28;20224;-60
2023/03/13 11:52:55;;;;;;;0.87;0.87;;;;;17.50;94911.00;;;;5042361;28;20587;-60
2023/03/13 11:55:37;;;;;;;0.57;0.57;;;;;16.90;94922.00;;;;5030540;28;20290;-60
2023/03/13 11:58:20;;;;;;;0.57;0.57;;;;;17.60;94900.00;;;;5051183;28;20196;-60
2023/03/13 12:00:52;;;;;;;0.70;0.60;;;;;17.90;94885.00;;;;5047093;28;20189;-59
2023/03/13 12:03:24;;;;;;;0.60;0.60;;;;;17.70;94879.00;;;;5051464;28;20184;-58
2023/03/13 12:05:54;;;;;;;0.60;0.60;;;;;18.30;94874.00;;;;5048157;28;20618;-57
2023/03/13 12:08:29;;;;;;;0.60;0.60;;;;;18.40;94859.00;;;;5031369;28;20603;-57
2023/03/13 12:11:06;;;;;;;0.50;0.50;;;;;18.70;94873.00;;;;5030260;28;20212;-57
2023/03/13 12:13:37;;;;;;;0.90;0.87;;;;;18.00;94849.00;;;;5031919;28;20192;-57
2023/03/13 12:16:12;;;;;;;0.50;0.50;;;;;18.30;94833.00;;;;5046096;28;20655;-57
2023/03/13 12:18:42;;;;;;;0.50;0.50;;;;;18.70;94830.00;;;;5051151;28;20770;-57